createdAt,value
2022-12-22T00:00:12.375Z,17.10
2022-12-22T00:02:57.937Z,16.30
2022-12-22T00:05:43.257Z,18.10
2022-12-22T00:08:28.918Z,16.97
2022-12-22T00:11:15.344Z,13.87
2022-12-22T00:14:02.453Z,15.17
2022-12-22T00:16:55.029Z,16.70
2022-12-22T00:19:40.953Z,15.00
2022-12-22T00:22:35.601Z,18.40
2022-12-22T00:25:20.790Z,15.17
2022-12-22T00:28:06.166Z,14.80
2022-12-22T00:30:51.360Z,15.20
2022-12-22T00:33:37.934Z,14.53
2022-12-22T00:36:25.209Z,13.70
2022-12-22T00:39:10.489Z,15.57
2022-12-22T00:41:55.873Z,14.20
2022-12-22T00:44:41.332Z,14.50
2022-12-22T00:47:32.521Z,15.33
2022-12-22T00:50:18.129Z,14.83
2022-12-22T00:53:03.548Z,15.23
2022-12-22T00:55:49.937Z,14.77
2022-12-22T00:58:36.640Z,15.30
2022-12-22T01:01:22.168Z,16.80
2022-12-22T01:04:07.517Z,16.10
2022-12-22T01:06:54.154Z,14.77
2022-12-22T01:09:40.451Z,16.00
2022-12-22T01:12:34.839Z,16.73
2022-12-22T01:15:19.901Z,15.90
2022-12-22T01:18:05.413Z,15.57
2022-12-22T01:20:50.850Z,13.30
2022-12-22T01:23:36.200Z,15.00
2022-12-22T01:26:21.709Z,14.80
2022-12-22T01:29:07.088Z,12.77
2022-12-22T01:31:52.366Z,15.20
2022-12-22T01:34:37.548Z,12.80
2022-12-22T01:37:22.849Z,13.23
2022-12-22T01:40:08.457Z,13.33
2022-12-22T01:42:53.864Z,13.17
2022-12-22T01:45:52.800Z,13.33
2022-12-22T01:48:44.314Z,13.70
2022-12-22T01:51:32.721Z,13.30
2022-12-22T01:54:18.293Z,13.77
2022-12-22T01:57:05.057Z,15.00
2022-12-22T01:59:50.295Z,16.67
2022-12-22T02:02:36.778Z,17.87
2022-12-22T02:05:23.743Z,16.30
2022-12-22T02:08:39.369Z,15.50
2022-12-22T02:11:35.781Z,13.87
2022-12-22T02:14:35.566Z,15.60
2022-12-22T02:17:44.132Z,14.50
2022-12-22T02:20:37.131Z,15.63
2022-12-22T02:23:45.565Z,14.77
2022-12-22T02:26:46.073Z,15.87
2022-12-22T02:29:38.380Z,14.70
2022-12-22T02:32:25.510Z,16.03
2022-12-22T02:35:10.659Z,13.07
2022-12-22T02:38:18.121Z,15.23
2022-12-22T02:41:25.649Z,15.00
2022-12-22T02:44:38.900Z,19.40
2022-12-22T02:47:32.320Z,18.07
2022-12-22T02:50:23.829Z,17.80
2022-12-22T02:53:09.441Z,17.00
2022-12-22T02:55:54.739Z,17.37
2022-12-22T02:58:39.905Z,17.67
2022-12-22T03:01:25.376Z,17.43
2022-12-22T03:04:10.805Z,16.63
2022-12-22T03:06:56.295Z,19.73
2022-12-22T03:09:41.702Z,18.40
2022-12-22T03:12:27.269Z,18.83
2022-12-22T03:15:12.446Z,15.20
2022-12-22T03:17:57.778Z,16.60
2022-12-22T03:20:43.344Z,15.07
2022-12-22T03:23:28.889Z,16.60
2022-12-22T03:25:55.501Z,19.27
2022-12-22T03:28:25.485Z,15.50
2022-12-22T03:30:59.755Z,17.63
2022-12-22T03:33:26.909Z,15.90
2022-12-22T03:35:53.783Z,16.07
2022-12-22T03:38:21.010Z,15.37
2022-12-22T03:40:47.938Z,16.80
2022-12-22T03:43:34.108Z,13.73
2022-12-22T03:46:10.098Z,14.40
2022-12-22T03:48:36.773Z,14.70
2022-12-22T03:51:03.547Z,13.13
2022-12-22T03:53:30.151Z,12.97
2022-12-22T03:55:57.366Z,13.60
2022-12-22T03:58:25.118Z,13.90
2022-12-22T04:00:51.932Z,13.57
2022-12-22T04:03:18.762Z,11.17
2022-12-22T04:05:45.803Z,12.97
2022-12-22T04:08:12.468Z,15.20
2022-12-22T04:10:58.078Z,15.50
2022-12-22T04:13:24.705Z,17.00
2022-12-22T04:15:51.467Z,17.70
2022-12-22T04:18:18.160Z,17.93
2022-12-22T04:20:44.876Z,14.73
2022-12-22T04:23:11.624Z,17.57
2022-12-22T04:25:38.316Z,17.47
2022-12-22T04:28:05.010Z,17.00
2022-12-22T04:30:31.761Z,16.73
2022-12-22T04:32:58.445Z,17.27
2022-12-22T04:35:25.192Z,18.40
2022-12-22T04:37:51.884Z,17.63
2022-12-22T04:40:18.591Z,16.67
2022-12-22T04:42:45.278Z,14.27
2022-12-22T04:45:12.042Z,16.13
2022-12-22T04:47:38.872Z,12.87
2022-12-22T04:50:06.318Z,16.97
2022-12-22T04:52:32.998Z,15.40
2022-12-22T04:54:59.719Z,12.53
2022-12-22T04:57:26.430Z,11.67
2022-12-22T04:59:53.165Z,8.40
2022-12-22T05:02:20.030Z,10.80
2022-12-22T05:04:46.849Z,13.20
2022-12-22T05:07:13.581Z,14.40
2022-12-22T05:09:40.445Z,16.33
2022-12-22T05:12:27.096Z,16.07
2022-12-22T05:14:53.916Z,16.27
2022-12-22T05:17:20.709Z,17.60
2022-12-22T05:19:47.473Z,17.90
2022-12-22T05:22:14.102Z,17.93
2022-12-22T05:24:40.744Z,19.40
2022-12-22T05:27:07.331Z,18.20
2022-12-22T05:29:33.917Z,19.20
2022-12-22T05:32:00.499Z,18.43
2022-12-22T05:34:27.381Z,17.47
2022-12-22T05:36:54.009Z,19.53
2022-12-22T05:39:20.636Z,15.57
2022-12-22T05:41:47.208Z,16.93
2022-12-22T05:44:13.831Z,16.53
2022-12-22T05:46:40.488Z,18.30
2022-12-22T05:49:07.143Z,17.37
2022-12-22T05:51:33.704Z,16.20
2022-12-22T05:54:00.341Z,15.97
2022-12-22T05:56:26.965Z,13.50
2022-12-22T05:58:53.614Z,15.07
2022-12-22T06:01:20.315Z,13.67
2022-12-22T06:03:47.047Z,15.40
2022-12-22T06:06:13.872Z,13.80
2022-12-22T06:08:40.582Z,16.20
2022-12-22T06:11:07.150Z,18.17
2022-12-22T06:13:33.827Z,15.60
2022-12-22T06:16:00.623Z,14.03
2022-12-22T06:18:28.394Z,14.33
2022-12-22T06:20:55.059Z,13.10
2022-12-22T06:23:22.894Z,14.17
2022-12-22T06:26:02.230Z,16.33
2022-12-22T06:28:29.255Z,14.77
2022-12-22T06:30:56.098Z,13.97
2022-12-22T06:33:22.984Z,12.97
2022-12-22T06:35:53.889Z,12.00
2022-12-22T06:38:25.119Z,10.23
2022-12-22T06:40:51.828Z,10.27
2022-12-22T06:43:18.540Z,10.97
2022-12-22T06:45:45.733Z,9.77
2022-12-22T06:48:13.325Z,10.03
2022-12-22T06:50:40.648Z,10.20
2022-12-22T06:53:08.240Z,9.07
2022-12-22T06:55:35.111Z,9.40
2022-12-22T06:58:02.294Z,10.50
2022-12-22T07:00:29.271Z,10.20
2022-12-22T07:02:56.406Z,9.83
2022-12-22T07:05:24.039Z,9.50
2022-12-22T07:07:51.068Z,7.90
2022-12-22T07:10:17.852Z,7.50
2022-12-22T07:12:44.447Z,8.60
2022-12-22T07:15:11.311Z,7.70
2022-12-22T07:17:38.245Z,8.00
2022-12-22T07:20:05.365Z,9.80
2022-12-22T07:22:32.043Z,11.13
2022-12-22T07:24:58.981Z,14.57
2022-12-22T07:27:25.824Z,12.70
2022-12-22T07:29:52.575Z,12.57
2022-12-22T07:32:19.255Z,12.60
2022-12-22T07:34:45.989Z,11.00
2022-12-22T07:37:13.892Z,10.97
2022-12-22T07:39:41.073Z,17.10
2022-12-22T07:42:26.575Z,18.33
2022-12-22T07:44:53.479Z,17.67
2022-12-22T07:47:20.116Z,15.27
2022-12-22T07:50:05.160Z,18.90
2022-12-22T07:52:31.893Z,19.90
2022-12-22T07:54:58.654Z,19.63
2022-12-22T07:57:26.471Z,16.67
2022-12-22T07:59:54.005Z,16.13
2022-12-22T08:02:20.858Z,17.07
2022-12-22T08:04:47.798Z,11.93
2022-12-22T08:07:14.674Z,13.37
2022-12-22T08:09:41.388Z,11.30
2022-12-22T08:12:08.199Z,12.87
2022-12-22T08:14:34.971Z,11.17
2022-12-22T08:17:01.700Z,10.43
2022-12-22T08:19:28.672Z,9.83
2022-12-22T08:21:55.372Z,10.20
2022-12-22T08:24:22.227Z,9.40
2022-12-22T08:26:51.549Z,10.57
2022-12-22T08:29:22.696Z,7.37
2022-12-22T08:31:49.870Z,10.03
2022-12-22T08:34:17.032Z,9.33
2022-12-22T08:36:49.730Z,8.83
2022-12-22T08:39:17.587Z,8.93
2022-12-22T08:41:50.150Z,9.30
2022-12-22T08:44:28.046Z,10.50
2022-12-22T08:46:56.919Z,9.37
2022-12-22T08:49:24.627Z,8.70
2022-12-22T08:51:51.746Z,9.70
2022-12-22T08:54:18.847Z,8.80
2022-12-22T08:56:45.831Z,8.97
2022-12-22T08:59:13.173Z,8.07
2022-12-22T09:01:47.015Z,9.13
2022-12-22T09:04:17.834Z,8.97
2022-12-22T09:06:45.087Z,8.57
2022-12-22T09:09:13.158Z,8.80
2022-12-22T09:11:40.685Z,7.80
2022-12-22T09:14:08.899Z,7.73
2022-12-22T09:16:36.317Z,9.10
2022-12-22T09:19:03.884Z,9.53
2022-12-22T09:21:30.878Z,9.67
2022-12-22T09:23:58.449Z,11.63
2022-12-22T09:26:27.595Z,11.90
2022-12-22T09:28:55.391Z,11.67
2022-12-22T09:31:23.084Z,12.47
2022-12-22T09:33:49.967Z,11.90
2022-12-22T09:36:28.927Z,9.70
2022-12-22T09:38:55.666Z,10.13
2022-12-22T09:41:29.283Z,10.83
2022-12-22T09:43:56.622Z,9.37
2022-12-22T09:46:26.430Z,12.27
2022-12-22T09:48:54.270Z,11.37
2022-12-22T09:51:26.827Z,12.57
2022-12-22T09:53:59.312Z,10.90
2022-12-22T09:56:27.837Z,11.87
2022-12-22T09:58:54.588Z,8.47
2022-12-22T10:01:28.494Z,8.77
2022-12-22T10:04:01.501Z,8.13
2022-12-22T10:06:45.482Z,9.87
2022-12-22T10:09:46.325Z,11.83
2022-12-22T10:12:05.848Z,8.73
2022-12-22T10:14:38.019Z,8.17
2022-12-22T10:17:25.295Z,7.70
2022-12-22T10:19:54.637Z,6.63
2022-12-22T10:22:36.718Z,6.90
2022-12-22T10:25:06.122Z,4.50
2022-12-22T10:27:37.287Z,7.50
2022-12-22T10:30:25.346Z,6.40
2022-12-22T10:33:11.092Z,7.67
2022-12-22T10:35:50.983Z,6.70
2022-12-22T10:38:54.242Z,7.27
2022-12-22T10:41:22.800Z,6.27
2022-12-22T10:43:55.496Z,6.90
2022-12-22T10:46:39.286Z,6.20
2022-12-22T10:49:12.724Z,5.50
2022-12-22T10:51:41.146Z,5.00
2022-12-22T10:54:07.989Z,5.77
2022-12-22T10:56:35.172Z,5.10
2022-12-22T10:59:01.868Z,5.00
2022-12-22T11:01:36.287Z,5.10
2022-12-22T11:04:25.032Z,4.93
2022-12-22T11:06:53.640Z,5.13
2022-12-22T11:09:35.955Z,5.37
2022-12-22T11:12:08.515Z,5.23
2022-12-22T11:14:49.146Z,5.20
2022-12-22T11:17:30.676Z,5.00
2022-12-22T11:20:35.014Z,6.53
2022-12-22T11:23:23.329Z,6.87
2022-12-22T11:26:16.247Z,6.37
2022-12-22T11:28:48.576Z,5.70
2022-12-22T11:31:23.561Z,6.37
2022-12-22T11:34:21.196Z,6.37
2022-12-22T11:37:10.155Z,7.17
2022-12-22T11:39:59.335Z,6.80
2022-12-22T11:43:04.118Z,7.03
2022-12-22T11:46:23.430Z,6.53
2022-12-22T11:49:10.268Z,7.50
2022-12-22T11:51:50.925Z,8.77
2022-12-22T11:54:50.255Z,9.17
2022-12-22T11:57:37.306Z,7.23
2022-12-22T12:00:14.952Z,7.00
2022-12-22T12:02:49.339Z,8.57
2022-12-22T12:05:25.245Z,8.20
2022-12-22T12:07:56.394Z,7.90
2022-12-22T12:10:35.536Z,9.37
2022-12-22T12:13:31.601Z,8.40
2022-12-22T12:16:19.928Z,9.13
2022-12-22T12:18:57.552Z,7.63
2022-12-22T12:21:50.462Z,8.07
2022-12-22T12:24:29.686Z,8.57
2022-12-22T12:27:14.775Z,6.63
2022-12-22T12:30:28.571Z,6.73
2022-12-22T12:33:03.993Z,6.83
2022-12-22T12:35:49.211Z,5.70
2022-12-22T12:41:25.156Z,7.40
2022-12-22T12:43:54.574Z,7.70
2022-12-22T12:46:54.046Z,7.10
2022-12-22T12:49:38.940Z,7.30
2022-12-22T12:52:09.957Z,6.53
2022-12-22T12:54:39.167Z,7.20
2022-12-22T12:57:25.821Z,6.90
2022-12-22T12:59:55.857Z,7.00
2022-12-22T13:02:29.098Z,7.27
2022-12-22T13:05:11.693Z,8.47
2022-12-22T13:08:16.225Z,7.53
2022-12-22T13:10:47.468Z,8.63
2022-12-22T13:13:34.935Z,9.57
2022-12-22T13:16:07.600Z,7.83
2022-12-22T13:18:34.305Z,7.60
2022-12-22T13:24:25.238Z,7.37
2022-12-22T13:26:55.314Z,7.40
2022-12-22T13:29:25.387Z,7.70
2022-12-22T13:31:56.493Z,9.10
2022-12-22T13:34:46.288Z,9.07
2022-12-22T13:37:25.374Z,10.00
2022-12-22T13:40:34.172Z,9.90
2022-12-22T13:43:17.927Z,8.50
2022-12-22T13:45:47.154Z,7.43
2022-12-22T13:48:22.460Z,8.37
2022-12-22T13:50:52.280Z,8.17
2022-12-22T13:54:07.300Z,8.63
2022-12-22T13:56:16.751Z,8.30
2022-12-22T13:58:47.659Z,7.80
2022-12-22T14:01:17.498Z,7.77
2022-12-22T14:04:02.209Z,6.47
2022-12-22T14:06:37.686Z,8.40
2022-12-22T14:09:24.659Z,10.63
2022-12-22T14:11:55.385Z,8.63
2022-12-22T14:14:38.757Z,11.10
2022-12-22T14:17:34.241Z,9.10
2022-12-22T14:20:09.120Z,9.00
2022-12-22T14:22:43.618Z,8.80
2022-12-22T14:25:20.501Z,8.20
2022-12-22T14:27:56.014Z,8.40
2022-12-22T14:30:36.191Z,9.20
2022-12-22T14:33:23.646Z,8.57
2022-12-22T14:35:50.441Z,8.13
2022-12-22T14:38:21.492Z,9.43
2022-12-22T14:40:52.639Z,10.30
2022-12-22T14:43:26.960Z,9.43
2022-12-22T14:46:06.469Z,10.90
2022-12-22T14:48:46.365Z,11.80
2022-12-22T14:51:17.779Z,8.57
2022-12-22T14:53:50.777Z,8.63
2022-12-22T14:56:20.242Z,9.50
2022-12-22T14:58:48.238Z,9.00
2022-12-22T15:01:25.209Z,11.70
2022-12-22T15:04:22.497Z,14.20
2022-12-22T15:06:49.480Z,15.40
2022-12-22T15:09:16.158Z,12.97
2022-12-22T15:12:02.922Z,12.30
2022-12-22T15:14:38.267Z,11.90
2022-12-22T15:17:06.992Z,12.30
2022-12-22T15:19:35.410Z,11.80
2022-12-22T15:22:02.373Z,10.80
2022-12-22T15:24:29.479Z,11.30
2022-12-22T15:26:56.574Z,13.73
2022-12-22T15:29:23.327Z,14.07
2022-12-22T15:31:50.078Z,11.60
2022-12-22T15:34:24.595Z,9.33
2022-12-22T15:36:51.527Z,11.70
2022-12-22T15:39:19.932Z,12.50
2022-12-22T15:41:46.980Z,9.33
2022-12-22T15:44:14.265Z,11.10
2022-12-22T15:46:42.904Z,13.17
2022-12-22T15:49:14.839Z,14.87
2022-12-22T15:51:42.810Z,13.43
2022-12-22T15:54:13.663Z,14.20
2022-12-22T15:56:40.392Z,12.47
2022-12-22T15:59:11.661Z,11.10
2022-12-22T16:01:38.537Z,8.23
2022-12-22T16:04:05.582Z,8.93
2022-12-22T16:06:32.808Z,15.37
2022-12-22T16:09:00.238Z,10.40
2022-12-22T16:11:26.995Z,9.30
2022-12-22T16:13:53.859Z,10.90
2022-12-22T16:16:20.786Z,9.70
2022-12-22T16:18:47.539Z,9.67
2022-12-22T16:21:19.752Z,11.40
2022-12-22T16:23:48.296Z,10.93
2022-12-22T16:26:18.583Z,10.43
2022-12-22T16:28:45.306Z,9.90
2022-12-22T16:31:20.221Z,9.53
2022-12-22T16:33:47.432Z,9.47
2022-12-22T16:36:14.352Z,11.40
2022-12-22T16:38:41.475Z,10.27
2022-12-22T16:41:19.498Z,10.13
2022-12-22T16:43:49.079Z,9.40
2022-12-22T16:46:19.199Z,14.73
2022-12-22T16:48:49.164Z,13.63
2022-12-22T16:51:19.735Z,16.00
2022-12-22T16:53:46.544Z,14.93
2022-12-22T16:56:17.988Z,12.90
2022-12-22T16:58:45.509Z,12.70
2022-12-22T17:01:37.320Z,13.50
2022-12-22T17:04:30.776Z,12.30
2022-12-22T17:07:00.030Z,11.57
2022-12-22T17:09:32.562Z,10.13
2022-12-22T17:12:01.045Z,11.10
2022-12-22T17:14:34.253Z,9.80
2022-12-22T17:17:01.046Z,8.20
2022-12-22T17:19:27.886Z,10.13
2022-12-22T17:21:55.819Z,9.83
2022-12-22T17:24:28.211Z,7.50
2022-12-22T17:27:06.116Z,9.47
2022-12-22T17:29:33.119Z,9.00
2022-12-22T17:31:59.889Z,7.97
2022-12-22T17:34:26.716Z,7.13
2022-12-22T17:36:55.909Z,6.90
2022-12-22T17:39:23.351Z,7.00
2022-12-22T17:41:56.246Z,7.27
2022-12-22T17:44:25.271Z,9.10
2022-12-22T17:46:52.296Z,10.70
2022-12-22T17:49:22.276Z,8.97
2022-12-22T17:51:49.431Z,8.90
2022-12-22T17:54:23.239Z,9.30
2022-12-22T17:56:50.262Z,8.47
2022-12-22T17:59:17.099Z,6.53
2022-12-22T18:01:43.907Z,6.60
2022-12-22T18:04:10.958Z,6.70
2022-12-22T18:06:40.012Z,6.90
2022-12-22T18:09:07.808Z,7.50
2022-12-22T18:11:34.556Z,5.73
2022-12-22T18:14:01.514Z,8.10
2022-12-22T18:16:28.551Z,12.27
2022-12-22T18:18:55.482Z,15.77
2022-12-22T18:21:24.458Z,18.70
2022-12-22T18:23:51.738Z,16.83
2022-12-22T18:26:24.909Z,16.03
2022-12-22T18:28:51.879Z,13.87
2022-12-22T18:31:19.147Z,13.07
2022-12-22T18:33:46.084Z,11.00
2022-12-22T18:36:33.088Z,8.97
2022-12-22T18:39:00.999Z,10.07
2022-12-22T18:41:30.758Z,8.83
2022-12-22T18:43:57.548Z,8.60
2022-12-22T18:46:24.803Z,8.90
2022-12-22T18:48:51.542Z,8.37
2022-12-22T18:51:23.928Z,8.70
2022-12-22T18:53:52.539Z,7.53
2022-12-22T18:56:19.532Z,7.67
2022-12-22T18:58:46.395Z,7.20
2022-12-22T19:01:26.600Z,7.90
2022-12-22T19:03:55.763Z,7.23
2022-12-22T19:06:23.245Z,6.67
2022-12-22T19:08:51.062Z,7.00
2022-12-22T19:11:21.168Z,6.63
2022-12-22T19:13:49.606Z,6.63
2022-12-22T19:16:18.497Z,6.70
2022-12-22T19:18:45.136Z,7.07
2022-12-22T19:21:17.187Z,6.70
2022-12-22T19:23:44.585Z,7.77
2022-12-22T19:26:26.344Z,5.63
2022-12-22T19:28:56.048Z,5.80
2022-12-22T19:31:25.891Z,5.27
2022-12-22T19:33:53.235Z,5.20
2022-12-22T19:36:25.738Z,7.00
2022-12-22T19:39:02.745Z,7.40
2022-12-22T19:41:52.065Z,10.00
2022-12-22T19:44:24.404Z,9.53
2022-12-22T19:46:51.975Z,11.07
2022-12-22T19:49:21.224Z,11.10
2022-12-22T19:51:48.496Z,12.40
2022-12-22T19:54:15.190Z,10.33
2022-12-22T19:56:45.771Z,9.70
2022-12-22T19:59:26.891Z,9.70
2022-12-22T20:01:54.048Z,11.20
2022-12-22T20:04:20.829Z,10.73
2022-12-22T20:06:47.670Z,11.20
2022-12-22T20:09:14.273Z,11.10
2022-12-22T20:11:43.656Z,12.63
2022-12-22T20:14:18.112Z,14.03
2022-12-22T20:16:45.129Z,12.80
2022-12-22T20:19:15.201Z,11.03
2022-12-22T20:21:42.409Z,12.40
2022-12-22T20:24:18.682Z,12.77
2022-12-22T20:26:50.175Z,9.80
2022-12-22T20:29:20.317Z,9.87
2022-12-22T20:31:46.960Z,10.80
2022-12-22T20:34:13.700Z,12.13
2022-12-22T20:36:40.341Z,11.60
2022-12-22T20:39:12.619Z,12.23
2022-12-22T20:41:39.469Z,11.13
2022-12-22T20:44:06.180Z,10.50
2022-12-22T20:46:33.112Z,12.53
2022-12-22T20:49:01.890Z,22.87
2022-12-22T20:51:31.179Z,10.23
2022-12-22T20:53:58.533Z,11.90
2022-12-22T20:56:30.955Z,11.20
2022-12-22T20:58:59.186Z,11.37
2022-12-22T21:01:26.132Z,9.43
2022-12-22T21:03:53.022Z,10.30
2022-12-22T21:06:28.007Z,7.33
2022-12-22T21:08:56.026Z,9.10
2022-12-22T21:11:23.365Z,12.27
2022-12-22T21:13:50.452Z,11.30
2022-12-22T21:16:20.829Z,13.10
2022-12-22T21:18:47.483Z,16.87
2022-12-22T21:21:14.840Z,17.27
2022-12-22T21:23:41.539Z,15.63
2022-12-22T21:26:20.376Z,16.17
2022-12-22T21:28:47.264Z,12.70
2022-12-22T21:31:13.934Z,11.80
2022-12-22T21:33:40.728Z,11.50
2022-12-22T21:36:16.876Z,14.53
2022-12-22T21:38:43.573Z,15.73
2022-12-22T21:41:10.145Z,11.50
2022-12-22T21:43:36.903Z,13.33
2022-12-22T21:46:03.582Z,11.73
2022-12-22T21:48:30.353Z,16.17
2022-12-22T21:50:56.937Z,16.60
2022-12-22T21:53:23.509Z,11.63
2022-12-22T21:55:50.418Z,11.63
2022-12-22T21:58:17.061Z,11.33
2022-12-22T22:00:47.185Z,11.80
2022-12-22T22:03:15.333Z,15.10
2022-12-22T22:05:43.496Z,18.70
2022-12-22T22:08:11.846Z,19.67
2022-12-22T22:10:41.554Z,17.80
2022-12-22T22:13:08.250Z,16.50
2022-12-22T22:15:35.478Z,14.53
2022-12-22T22:18:06.915Z,15.30
2022-12-22T22:20:34.256Z,14.80
2022-12-22T22:23:01.013Z,14.53
2022-12-22T22:25:27.989Z,12.90
2022-12-22T22:27:59.514Z,11.97
2022-12-22T22:30:27.105Z,16.20
2022-12-22T22:32:54.926Z,17.40
2022-12-22T22:35:22.484Z,16.70
2022-12-22T22:37:52.845Z,18.13
2022-12-22T22:40:21.588Z,22.67
2022-12-22T22:42:48.307Z,16.93
2022-12-22T22:45:16.801Z,14.87
2022-12-22T22:47:43.423Z,13.77
2022-12-22T22:50:10.203Z,14.47
2022-12-22T22:52:37.010Z,13.70
2022-12-22T22:55:03.892Z,11.00
2022-12-22T22:57:30.461Z,11.50
2022-12-22T22:59:57.026Z,11.97
2022-12-22T23:02:24.033Z,10.60
2022-12-22T23:04:50.806Z,9.10
2022-12-22T23:07:17.546Z,11.47
2022-12-22T23:09:45.372Z,10.77
2022-12-22T23:12:12.099Z,10.33
2022-12-22T23:14:39.375Z,9.47
2022-12-22T23:17:06.069Z,10.70
2022-12-22T23:19:32.747Z,8.40
2022-12-22T23:21:59.412Z,7.53
2022-12-22T23:24:26.026Z,7.83
2022-12-22T23:26:52.836Z,8.50
2022-12-22T23:29:19.437Z,8.30
2022-12-22T23:31:46.085Z,7.97
2022-12-22T23:34:12.779Z,7.63
2022-12-22T23:36:39.392Z,8.47
2022-12-22T23:39:06.244Z,7.90
2022-12-22T23:41:32.938Z,9.70
2022-12-22T23:43:59.585Z,10.20
2022-12-22T23:46:26.170Z,10.87
2022-12-22T23:48:58.164Z,9.97
2022-12-22T23:51:27.371Z,10.20
2022-12-22T23:53:56.030Z,9.90
2022-12-22T23:56:23.307Z,9.30
2022-12-22T23:58:54.588Z,8.80
